sensor_id;sensor_type;location;lat;lon;timestamp;pressure;altitude;pressure_sealevel;temperature;humidity
36380;BME280;22411;53.016;18.632;2023-04-29T00:01:11;100482.34;;;8.22;100.00
36380;BME280;22411;53.016;18.632;2023-04-29T00:03:41;100477.28;;;8.21;100.00
36380;BME280;22411;53.016;18.632;2023-04-29T00:06:09;100473.06;;;8.20;100.00
36380;BME280;22411;53.016;18.632;2023-04-29T00:08:36;100462.72;;;8.20;100.00
36380;BME280;22411;53.016;18.632;2023-04-29T00:11:04;100471.75;;;8.12;100.00
36380;BME280;22411;53.016;18.632;2023-04-29T00:13:31;100473.78;;;8.07;100.00
36380;BME280;22411;53.016;18.632;2023-04-29T00:16:01;100470.44;;;8.05;100.00
36380;BME280;22411;53.016;18.632;2023-04-29T00:18:32;100477.25;;;8.06;100.00
36380;BME280;22411;53.016;18.632;2023-04-29T00:21:00;100467.28;;;8.00;100.00
36380;BME280;22411;53.016;18.632;2023-04-29T00:23:27;100469.25;;;7.97;100.00
36380;BME280;22411;53.016;18.632;2023-04-29T00:25:53;100479.56;;;7.97;100.00
36380;BME280;22411;53.016;18.632;2023-04-29T00:28:19;100467.75;;;7.93;100.00
36380;BME280;22411;53.016;18.632;2023-04-29T00:30:50;100472.72;;;7.96;100.00
36380;BME280;22411;53.016;18.632;2023-04-29T00:33:23;100475.22;;;7.97;100.00
36380;BME280;22411;53.016;18.632;2023-04-29T00:35:54;100467.91;;;7.90;100.00
36380;BME280;22411;53.016;18.632;2023-04-29T00:38:23;100465.59;;;7.85;100.00
36380;BME280;22411;53.016;18.632;2023-04-29T00:40:50;100463.03;;;7.85;100.00
36380;BME280;22411;53.016;18.632;2023-04-29T00:43:19;100457.03;;;7.84;100.00
36380;BME280;22411;53.016;18.632;2023-04-29T00:45:46;100460.72;;;7.80;100.00
36380;BME280;22411;53.016;18.632;2023-04-29T00:48:16;100456.41;;;7.81;100.00
36380;BME280;22411;53.016;18.632;2023-04-29T00:50:50;100457.56;;;7.75;100.00
36380;BME280;22411;53.016;18.632;2023-04-29T00:53:16;100452.59;;;7.72;100.00
36380;BME280;22411;53.016;18.632;2023-04-29T00:55:43;100453.88;;;7.65;100.00
36380;BME280;22411;53.016;18.632;2023-04-29T00:58:10;100448.41;;;7.70;100.00
36380;BME280;22411;53.016;18.632;2023-04-29T01:00:39;100442.44;;;7.69;100.00
36380;BME280;22411;53.016;18.632;2023-04-29T01:03:13;100447.69;;;7.68;100.00
36380;BME280;22411;53.016;18.632;2023-04-29T01:05:39;100446.03;;;7.67;100.00
36380;BME280;22411;53.016;18.632;2023-04-29T01:10:54;100446.84;;;7.67;100.00
36380;BME280;22411;53.016;18.632;2023-04-29T01:13:29;100448.88;;;7.62;100.00
36380;BME280;22411;53.016;18.632;2023-04-29T01:16:03;100448.03;;;7.62;100.00
36380;BME280;22411;53.016;18.632;2023-04-29T01:18:44;100450.72;;;7.60;100.00
36380;BME280;22411;53.016;18.632;2023-04-29T01:21:11;100442.47;;;7.53;100.00
36380;BME280;22411;53.016;18.632;2023-04-29T01:23:41;100449.31;;;7.54;100.00
36380;BME280;22411;53.016;18.632;2023-04-29T01:26:12;100446.16;;;7.49;100.00
36380;BME280;22411;53.016;18.632;2023-04-29T01:28:51;100450.50;;;7.49;100.00
36380;BME280;22411;53.016;18.632;2023-04-29T01:36:56;100440.75;;;7.38;100.00
36380;BME280;22411;53.016;18.632;2023-04-29T01:42:20;100441.41;;;7.42;100.00
36380;BME280;22411;53.016;18.632;2023-04-29T01:44:50;100446.66;;;7.40;100.00
36380;BME280;22411;53.016;18.632;2023-04-29T01:47:24;100442.78;;;7.33;100.00
36380;BME280;22411;53.016;18.632;2023-04-29T01:49:51;100442.03;;;7.31;100.00
36380;BME280;22411;53.016;18.632;2023-04-29T01:52:20;100450.69;;;7.30;100.00
36380;BME280;22411;53.016;18.632;2023-04-29T01:54:48;100444.50;;;7.32;100.00
36380;BME280;22411;53.016;18.632;2023-04-29T01:57:13;100443.69;;;7.32;100.00
36380;BME280;22411;53.016;18.632;2023-04-29T01:59:42;100440.22;;;7.33;100.00
36380;BME280;22411;53.016;18.632;2023-04-29T02:02:11;100443.69;;;7.32;100.00
36380;BME280;22411;53.016;18.632;2023-04-29T02:04:41;100439.28;;;7.34;100.00
36380;BME280;22411;53.016;18.632;2023-04-29T02:07:08;100432.47;;;7.33;100.00
36380;BME280;22411;53.016;18.632;2023-04-29T02:09:34;100436.63;;;7.36;100.00
36380;BME280;22411;53.016;18.632;2023-04-29T02:12:01;100434.75;;;7.38;100.00
36380;BME280;22411;53.016;18.632;2023-04-29T02:14:32;100437.03;;;7.44;100.00
36380;BME280;22411;53.016;18.632;2023-04-29T02:17:01;100432.84;;;7.41;100.00
36380;BME280;22411;53.016;18.632;2023-04-29T02:19:28;100432.69;;;7.44;100.00
36380;BME280;22411;53.016;18.632;2023-04-29T02:21:57;100439.31;;;7.48;100.00
36380;BME280;22411;53.016;18.632;2023-04-29T02:24:29;100428.38;;;7.45;100.00
36380;BME280;22411;53.016;18.632;2023-04-29T02:27:05;100430.19;;;7.43;100.00
36380;BME280;22411;53.016;18.632;2023-04-29T02:29:32;100425.69;;;7.46;100.00
36380;BME280;22411;53.016;18.632;2023-04-29T02:31:58;100418.69;;;7.48;100.00
36380;BME280;22411;53.016;18.632;2023-04-29T02:34:28;100417.94;;;7.46;100.00
36380;BME280;22411;53.016;18.632;2023-04-29T02:36:54;100417.22;;;7.44;100.00
36380;BME280;22411;53.016;18.632;2023-04-29T02:39:23;100417.22;;;7.44;100.00
36380;BME280;22411;53.016;18.632;2023-04-29T02:41:53;100406.91;;;7.44;100.00
36380;BME280;22411;53.016;18.632;2023-04-29T02:44:27;100406.66;;;7.49;100.00
36380;BME280;22411;53.016;18.632;2023-04-29T02:47:00;100410.94;;;7.48;100.00
36380;BME280;22411;53.016;18.632;2023-04-29T02:49:34;100404.22;;;7.46;100.00
36380;BME280;22411;53.016;18.632;2023-04-29T02:52:00;100407.78;;;7.43;100.00
36380;BME280;22411;53.016;18.632;2023-04-29T02:54:29;100400.06;;;7.43;100.00
36380;BME280;22411;53.016;18.632;2023-04-29T02:56:56;100404.97;;;7.48;100.00
36380;BME280;22411;53.016;18.632;2023-04-29T02:59:23;100405.06;;;7.46;100.00
36380;BME280;22411;53.016;18.632;2023-04-29T03:01:49;100400.25;;;7.40;100.00
36380;BME280;22411;53.016;18.632;2023-04-29T03:04:16;100403.66;;;7.41;100.00
36380;BME280;22411;53.016;18.632;2023-04-29T03:06:47;100399.44;;;7.40;100.00
36380;BME280;22411;53.016;18.632;2023-04-29T03:09:14;100397.78;;;7.39;100.00
36380;BME280;22411;53.016;18.632;2023-04-29T03:11:42;100400.06;;;7.43;100.00
36380;BME280;22411;53.016;18.632;2023-04-29T03:14:08;100400.94;;;7.44;100.00
36380;BME280;22411;53.016;18.632;2023-04-29T03:16:34;100395.25;;;7.37;100.00
36380;BME280;22411;53.016;18.632;2023-04-29T03:19:00;100412.38;;;7.38;100.00
36380;BME280;22411;53.016;18.632;2023-04-29T03:21:29;100409.50;;;7.44;100.00
36380;BME280;22411;53.016;18.632;2023-04-29T03:23:55;100406.91;;;7.44;100.00
36380;BME280;22411;53.016;18.632;2023-04-29T03:26:21;100409.50;;;7.44;100.00
36380;BME280;22411;53.016;18.632;2023-04-29T03:28:51;100411.41;;;7.41;100.00
36380;BME280;22411;53.016;18.632;2023-04-29T03:31:18;100407.78;;;7.43;100.00
36380;BME280;22411;53.016;18.632;2023-04-29T03:33:51;100406.97;;;7.43;100.00
36380;BME280;22411;53.016;18.632;2023-04-29T03:36:25;100399.22;;;7.43;100.00
36380;BME280;22411;53.016;18.632;2023-04-29T03:38:54;100411.25;;;7.44;100.00
36380;BME280;22411;53.016;18.632;2023-04-29T03:41:24;100405.88;;;7.47;100.00
36380;BME280;22411;53.016;18.632;2023-04-29T03:43:52;100409.22;;;7.49;100.00
36380;BME280;22411;53.016;18.632;2023-04-29T03:46:23;100407.19;;;7.54;100.00
36380;BME280;22411;53.016;18.632;2023-04-29T03:48:49;100404.44;;;7.57;100.00
36380;BME280;22411;53.016;18.632;2023-04-29T03:51:16;100407.75;;;7.59;100.00
36380;BME280;22411;53.016;18.632;2023-04-29T03:53:43;100409.44;;;7.60;100.00
36380;BME280;22411;53.016;18.632;2023-04-29T03:56:09;100404.28;;;7.60;100.00
36380;BME280;22411;53.016;18.632;2023-04-29T03:58:37;100405.19;;;7.59;100.00
36380;BME280;22411;53.016;18.632;2023-04-29T04:01:03;100398.38;;;7.58;100.00
36380;BME280;22411;53.016;18.632;2023-04-29T04:03:30;100405.09;;;7.60;100.00
36380;BME280;22411;53.016;18.632;2023-04-29T04:05:56;100403.34;;;7.61;100.00
36380;BME280;22411;53.016;18.632;2023-04-29T04:08:22;100388.81;;;7.60;100.00
36380;BME280;22411;53.016;18.632;2023-04-29T04:10:51;100393.88;;;7.62;100.00
36380;BME280;22411;53.016;18.632;2023-04-29T04:13:25;100385.88;;;7.66;100.00
36380;BME280;22411;53.016;18.632;2023-04-29T04:15:53;100388.25;;;7.69;100.00
36380;BME280;22411;53.016;18.632;2023-04-29T04:18:19;100388.91;;;7.73;100.00
36380;BME280;22411;53.016;18.632;2023-04-29T04:20:45;100383.66;;;7.74;100.00
36380;BME280;22411;53.016;18.632;2023-04-29T04:23:12;100392.06;;;7.78;100.00
36380;BME280;22411;53.016;18.632;2023-04-29T04:25:49;100394.63;;;7.78;100.00
36380;BME280;22411;53.016;18.632;2023-04-29T04:28:22;100398.81;;;7.80;100.00
36380;BME280;22411;53.016;18.632;2023-04-29T04:30:51;100389.00;;;7.85;100.00
36380;BME280;22411;53.016;18.632;2023-04-29T04:33:20;100396.41;;;7.92;100.00
36380;BME280;22411;53.016;18.632;2023-04-29T04:35:47;100387.66;;;7.94;100.00
36380;BME280;22411;53.016;18.632;2023-04-29T04:38:14;100391.00;;;7.96;100.00
36380;BME280;22411;53.016;18.632;2023-04-29T04:40:51;100387.13;;;8.03;100.00
36380;BME280;22411;53.016;18.632;2023-04-29T04:43:17;100388.59;;;8.07;100.00
36380;BME280;22411;53.016;18.632;2023-04-29T04:45:46;100399.53;;;8.11;100.00
36380;BME280;22411;53.016;18.632;2023-04-29T04:48:12;100395.03;;;8.15;100.00
36380;BME280;22411;53.016;18.632;2023-04-29T04:50:38;100398.00;;;8.23;100.00
36380;BME280;22411;53.016;18.632;2023-04-29T04:53:06;100393.28;;;8.29;100.00
36380;BME280;22411;53.016;18.632;2023-04-29T04:55:32;100396.19;;;8.39;100.00
36380;BME280;22411;53.016;18.632;2023-04-29T04:58:04;100395.69;;;8.47;100.00
36380;BME280;22411;53.016;18.632;2023-04-29T05:00:32;100404.66;;;8.55;100.00
36380;BME280;22411;53.016;18.632;2023-04-29T05:03:05;100400.09;;;8.59;100.00
36380;BME280;22411;53.016;18.632;2023-04-29T05:05:33;100403.44;;;8.61;100.00
36380;BME280;22411;53.016;18.632;2023-04-29T05:08:04;100405.38;;;8.57;100.00
36380;BME280;22411;53.016;18.632;2023-04-29T05:10:45;100401.03;;;8.58;100.00
36380;BME280;22411;53.016;18.632;2023-04-29T05:13:27;100409.81;;;8.55;100.00
36380;BME280;22411;53.016;18.632;2023-04-29T05:16:02;100410.16;;;8.63;100.00
36380;BME280;22411;53.016;18.632;2023-04-29T05:18:44;100401.47;;;8.64;100.00
36380;BME280;22411;53.016;18.632;2023-04-29T05:21:12;100405.81;;;8.78;100.00
36380;BME280;22411;53.016;18.632;2023-04-29T05:23:42;100413.72;;;8.89;100.00
36380;BME280;22411;53.016;18.632;2023-04-29T05:26:13;100411.19;;;9.02;100.00
36380;BME280;22411;53.016;18.632;2023-04-29T05:28:55;100407.94;;;9.13;100.00
36380;BME280;22411;53.016;18.632;2023-04-29T05:31:32;100405.47;;;9.24;100.00
36380;BME280;22411;53.016;18.632;2023-04-29T05:34:04;100406.25;;;9.39;100.00
36380;BME280;22411;53.016;18.632;2023-04-29T05:36:30;100410.50;;;9.53;100.00
36380;BME280;22411;53.016;18.632;2023-04-29T05:38:56;100408.78;;;9.66;100.00
36380;BME280;22411;53.016;18.632;2023-04-29T05:41:22;100407.78;;;9.81;100.00
36380;BME280;22411;53.016;18.632;2023-04-29T05:43:50;100409.00;;;10.01;100.00
36380;BME280;22411;53.016;18.632;2023-04-29T05:46:20;100404.56;;;10.16;100.00
36380;BME280;22411;53.016;18.632;2023-04-29T05:48:47;100405.38;;;10.16;100.00
36380;BME280;22411;53.016;18.632;2023-04-29T05:51:14;100404.78;;;10.26;100.00
36380;BME280;22411;53.016;18.632;2023-04-29T05:53:43;100402.59;;;10.32;100.00
36380;BME280;22411;53.016;18.632;2023-04-29T05:56:09;100411.13;;;10.34;100.00
36380;BME280;22411;53.016;18.632;2023-04-29T05:58:35;100408.72;;;10.44;100.00
36380;BME280;22411;53.016;18.632;2023-04-29T06:01:04;100410.06;;;10.50;100.00
36380;BME280;22411;53.016;18.632;2023-04-29T06:03:33;100397.63;;;10.42;100.00
36380;BME280;22411;53.016;18.632;2023-04-29T06:05:59;100401.44;;;10.49;100.00
36380;BME280;22411;53.016;18.632;2023-04-29T06:08:25;100401.44;;;10.49;100.00
36380;BME280;22411;53.016;18.632;2023-04-29T06:10:59;100406.59;;;10.62;100.00
36380;BME280;22411;53.016;18.632;2023-04-29T06:13:29;100407.81;;;10.69;100.00
36380;BME280;22411;53.016;18.632;2023-04-29T06:16:01;100412.88;;;10.83;100.00
36380;BME280;22411;53.016;18.632;2023-04-29T06:18:35;100416.16;;;10.98;100.00
36380;BME280;22411;53.016;18.632;2023-04-29T06:21:12;100416.53;;;11.05;100.00
36380;BME280;22411;53.016;18.632;2023-04-29T06:23:49;100424.16;;;11.19;100.00
36380;BME280;22411;53.016;18.632;2023-04-29T06:26:17;100413.81;;;11.30;100.00
36380;BME280;22411;53.016;18.632;2023-04-29T06:28:48;100419.50;;;11.35;100.00
36380;BME280;22411;53.016;18.632;2023-04-29T06:31:15;100412.16;;;11.29;100.00
36380;BME280;22411;53.016;18.632;2023-04-29T06:33:41;100406.28;;;11.38;100.00
36380;BME280;22411;53.016;18.632;2023-04-29T06:36:13;100407.72;;;11.42;100.00
36380;BME280;22411;53.016;18.632;2023-04-29T06:38:41;100410.81;;;11.47;100.00
36380;BME280;22411;53.016;18.632;2023-04-29T06:41:12;100415.34;;;11.33;100.00
36380;BME280;22411;53.016;18.632;2023-04-29T06:43:39;100413.81;;;11.30;100.00
36380;BME280;22411;53.016;18.632;2023-04-29T06:46:09;100402.94;;;11.25;100.00
36380;BME280;22411;53.016;18.632;2023-04-29T06:48:43;100407.19;;;11.26;100.00
36380;BME280;22411;53.016;18.632;2023-04-29T06:51:12;100410.66;;;11.38;100.00
36380;BME280;22411;53.016;18.632;2023-04-29T06:53:42;100401.22;;;11.37;100.00
36380;BME280;22411;53.016;18.632;2023-04-29T06:56:16;100403.28;;;11.20;100.00
36380;BME280;22411;53.016;18.632;2023-04-29T06:58:48;100405.66;;;11.23;100.00
36380;BME280;22411;53.016;18.632;2023-04-29T07:01:22;100404.72;;;11.24;100.00
36380;BME280;22411;53.016;18.632;2023-04-29T07:03:55;100408.09;;;11.14;100.00
36380;BME280;22411;53.016;18.632;2023-04-29T07:06:21;100397.97;;;11.22;100.00
36380;BME280;22411;53.016;18.632;2023-04-29T07:08:47;100407.13;;;11.39;100.00
36380;BME280;22411;53.016;18.632;2023-04-29T07:11:14;100403.06;;;11.59;100.00
36380;BME280;22411;53.016;18.632;2023-04-29T07:13:40;100404.63;;;11.72;100.00
36380;BME280;22411;53.016;18.632;2023-04-29T07:16:14;100396.25;;;11.80;100.00
36380;BME280;22411;53.016;18.632;2023-04-29T07:18:43;100393.84;;;12.01;100.00
36380;BME280;22411;53.016;18.632;2023-04-29T07:21:08;100398.22;;;12.12;100.00
36380;BME280;22411;53.016;18.632;2023-04-29T07:23:44;100400.94;;;12.21;100.00
36380;BME280;22411;53.016;18.632;2023-04-29T07:26:13;100402.72;;;12.32;100.00
36380;BME280;22411;53.016;18.632;2023-04-29T07:28:40;100404.72;;;12.51;100.00
36380;BME280;22411;53.016;18.632;2023-04-29T07:31:07;100406.03;;;12.56;100.00
36380;BME280;22411;53.016;18.632;2023-04-29T07:34:06;100404.22;;;12.68;100.00
36380;BME280;22411;53.016;18.632;2023-04-29T07:36:40;100414.03;;;12.65;100.00
36380;BME280;22411;53.016;18.632;2023-04-29T07:39:09;100408.47;;;12.69;100.00
36380;BME280;22411;53.016;18.632;2023-04-29T07:41:36;100412.53;;;12.51;100.00
36380;BME280;22411;53.016;18.632;2023-04-29T07:44:05;100411.69;;;12.62;100.00
36380;BME280;22411;53.016;18.632;2023-04-29T07:46:31;100406.97;;;12.67;100.00
36380;BME280;22411;53.016;18.632;2023-04-29T07:48:57;100405.38;;;12.75;100.00
36380;BME280;22411;53.016;18.632;2023-04-29T07:51:30;100404.34;;;12.78;100.00
36380;BME280;22411;53.016;18.632;2023-04-29T07:54:01;100405.53;;;12.74;100.00
36380;BME280;22411;53.016;18.632;2023-04-29T07:56:27;100409.06;;;12.73;100.00
36380;BME280;22411;53.016;18.632;2023-04-29T07:58:59;100412.38;;;12.75;100.00
36380;BME280;22411;53.016;18.632;2023-04-29T08:01:26;100418.41;;;12.75;100.00
36380;BME280;22411;53.016;18.632;2023-04-29T08:03:53;100415.59;;;12.67;100.00
36380;BME280;22411;53.016;18.632;2023-04-29T08:06:24;100411.44;;;12.65;100.00
36380;BME280;22411;53.016;18.632;2023-04-29T08:08:58;100415.34;;;12.59;100.00
36380;BME280;22411;53.016;18.632;2023-04-29T08:11:24;100415.47;;;12.57;100.00
36380;BME280;22411;53.016;18.632;2023-04-29T08:13:52;100409.56;;;12.44;100.00
36380;BME280;22411;53.016;18.632;2023-04-29T08:16:21;100410.88;;;12.50;100.00
36380;BME280;22411;53.016;18.632;2023-04-29T08:18:51;100408.63;;;12.56;100.00
36380;BME280;22411;53.016;18.632;2023-04-29T08:21:17;100418.78;;;12.48;100.00
36380;BME280;22411;53.016;18.632;2023-04-29T08:23:47;100412.06;;;12.46;100.00
36380;BME280;22411;53.016;18.632;2023-04-29T08:26:16;100420.81;;;12.45;100.00
36380;BME280;22411;53.016;18.632;2023-04-29T08:28:43;100414.31;;;12.39;100.00
36380;BME280;22411;53.016;18.632;2023-04-29T08:31:20;100416.41;;;12.23;100.00
36380;BME280;22411;53.016;18.632;2023-04-29T08:33:49;100414.16;;;12.07;100.00
36380;BME280;22411;53.016;18.632;2023-04-29T08:36:18;100418.06;;;12.01;100.00
36380;BME280;22411;53.016;18.632;2023-04-29T08:38:46;100420.41;;;11.93;100.00
36380;BME280;22411;53.016;18.632;2023-04-29T08:41:18;100419.47;;;11.94;100.00
36380;BME280;22411;53.016;18.632;2023-04-29T08:43:48;100429.50;;;11.88;100.00
36380;BME280;22411;53.016;18.632;2023-04-29T08:46:23;100429.38;;;11.89;100.00
36380;BME280;22411;53.016;18.632;2023-04-29T08:49:00;100418.06;;;12.01;100.00
36380;BME280;22411;53.016;18.632;2023-04-29T08:51:29;100422.44;;;12.12;100.00
36380;BME280;22411;53.016;18.632;2023-04-29T08:54:01;100428.34;;;12.14;100.00
36380;BME280;22411;53.016;18.632;2023-04-29T08:56:28;100430.97;;;12.14;100.00
36380;BME280;22411;53.016;18.632;2023-04-29T08:58:59;100434.50;;;12.24;100.00
36380;BME280;22411;53.016;18.632;2023-04-29T09:01:28;100435.69;;;12.32;100.00
36380;BME280;22411;53.016;18.632;2023-04-29T09:06:57;100430.25;;;12.23;100.00
36380;BME280;22411;53.016;18.632;2023-04-29T09:09:34;100437.44;;;12.20;100.00
36380;BME280;22411;53.016;18.632;2023-04-29T09:12:01;100436.50;;;12.10;100.00
36380;BME280;22411;53.016;18.632;2023-04-29T09:14:31;100435.78;;;12.08;100.00
36380;BME280;22411;53.016;18.632;2023-04-29T09:17:01;100442.88;;;12.17;100.00
36380;BME280;22411;53.016;18.632;2023-04-29T09:19:32;100437.66;;;12.17;100.00
36380;BME280;22411;53.016;18.632;2023-04-29T09:22:01;100442.88;;;12.28;100.00
36380;BME280;22411;53.016;18.632;2023-04-29T09:24:29;100443.13;;;12.25;100.00
36380;BME280;22411;53.016;18.632;2023-04-29T09:26:57;100439.34;;;12.29;100.00
36380;BME280;22411;53.016;18.632;2023-04-29T09:29:31;100445.00;;;12.23;100.00
36380;BME280;22411;53.016;18.632;2023-04-29T09:32:20;100446.69;;;12.24;100.00
36380;BME280;22411;53.016;18.632;2023-04-29T09:34:48;100445.13;;;12.33;100.00
36380;BME280;22411;53.016;18.632;2023-04-29T09:37:25;100448.31;;;12.36;100.00
36380;BME280;22411;53.016;18.632;2023-04-29T09:39:58;100443.81;;;12.38;100.00
36380;BME280;22411;53.016;18.632;2023-04-29T09:42:27;100442.78;;;12.41;100.00
36380;BME280;22411;53.016;18.632;2023-04-29T09:44:53;100447.16;;;12.51;100.00
36380;BME280;22411;53.016;18.632;2023-04-29T09:47:33;100440.16;;;12.74;100.00
36380;BME280;22411;53.016;18.632;2023-04-29T09:50:12;100436.44;;;12.99;100.00
36380;BME280;22411;53.016;18.632;2023-04-29T09:52:49;100437.56;;;13.18;100.00
36380;BME280;22411;53.016;18.632;2023-04-29T09:55:35;100434.50;;;13.35;100.00
36380;BME280;22411;53.016;18.632;2023-04-29T09:58:01;100434.75;;;13.53;100.00
36380;BME280;22411;53.016;18.632;2023-04-29T10:00:32;100436.28;;;13.55;100.00
36380;BME280;22411;53.016;18.632;2023-04-29T10:03:07;100434.88;;;13.51;100.00
36380;BME280;22411;53.016;18.632;2023-04-29T10:05:42;100433.69;;;13.23;100.00
36380;BME280;22411;53.016;18.632;2023-04-29T10:08:12;100439.84;;;13.22;100.00
36380;BME280;22411;53.016;18.632;2023-04-29T10:10:41;100420.88;;;13.31;100.00
36380;BME280;22411;53.016;18.632;2023-04-29T10:13:07;100439.66;;;13.46;100.00
36380;BME280;22411;53.016;18.632;2023-04-29T10:15:43;100436.38;;;13.33;100.00
36380;BME280;22411;53.016;18.632;2023-04-29T10:18:29;100439.94;;;13.32;100.00
36380;BME280;22411;53.016;18.632;2023-04-29T10:21:07;100440.25;;;13.39;100.00
36380;BME280;22411;53.016;18.632;2023-04-29T10:23:37;100434.25;;;13.27;100.00
36380;BME280;22411;53.016;18.632;2023-04-29T10:26:06;100430.97;;;13.25;100.00
36380;BME280;22411;53.016;18.632;2023-04-29T10:28:40;100421.03;;;13.30;100.00
36380;BME280;22411;53.016;18.632;2023-04-29T10:31:08;100422.44;;;13.34;100.00
36380;BME280;22411;53.016;18.632;2023-04-29T10:33:39;100429.09;;;13.48;100.00
36380;BME280;22411;53.016;18.632;2023-04-29T10:36:09;100429.75;;;13.61;100.00
36380;BME280;22411;53.016;18.632;2023-04-29T10:38:46;100429.75;;;13.61;100.00
36380;BME280;22411;53.016;18.632;2023-04-29T10:41:24;100431.09;;;13.76;100.00
36380;BME280;22411;53.016;18.632;2023-04-29T10:43:51;100426.44;;;13.80;100.00
36380;BME280;22411;53.016;18.632;2023-04-29T10:46:23;100419.59;;;13.79;100.00
36380;BME280;22411;53.016;18.632;2023-04-29T10:49:03;100411.78;;;13.79;100.00
36380;BME280;22411;53.016;18.632;2023-04-29T10:51:42;100412.66;;;13.68;100.00
36380;BME280;22411;53.016;18.632;2023-04-29T10:54:18;100416.84;;;13.80;100.00
36380;BME280;22411;53.016;18.632;2023-04-29T10:56:52;100410.25;;;13.76;100.00
36380;BME280;22411;53.016;18.632;2023-04-29T11:02:11;100402.28;;;13.99;100.00
36380;BME280;22411;53.016;18.632;2023-04-29T11:05:08;100406.22;;;14.14;100.00
36380;BME280;22411;53.016;18.632;2023-04-29T11:07:36;100404.91;;;14.29;100.00
36380;BME280;22411;53.016;18.632;2023-04-29T11:10:05;100398.34;;;14.35;100.00
36380;BME280;22411;53.016;18.632;2023-04-29T11:12:36;100403.13;;;14.30;100.00
36380;BME280;22411;53.016;18.632;2023-04-29T11:15:02;100395.47;;;14.38;100.00
36380;BME280;22411;53.016;18.632;2023-04-29T11:17:38;100396.66;;;14.24;100.00
36380;BME280;22411;53.016;18.632;2023-04-29T11:20:14;100399.81;;;14.28;100.00
36380;BME280;22411;53.016;18.632;2023-04-29T11:22:42;100397.38;;;14.36;100.00
36380;BME280;22411;53.016;18.632;2023-04-29T11:25:15;100389.78;;;14.23;100.00
36380;BME280;22411;53.016;18.632;2023-04-29T11:27:47;100388.41;;;14.19;100.00
36380;BME280;22411;53.016;18.632;2023-04-29T11:30:14;100392.75;;;14.09;100.00
36380;BME280;22411;53.016;18.632;2023-04-29T11:32:43;100388.34;;;14.09;100.00
36380;BME280;22411;53.016;18.632;2023-04-29T11:35:13;100392.38;;;14.23;100.00
36380;BME280;22411;53.016;18.632;2023-04-29T11:37:43;100396.38;;;14.27;100.00
36380;BME280;22411;53.016;18.632;2023-04-29T11:40:14;100385.13;;;14.27;100.00
36380;BME280;22411;53.016;18.632;2023-04-29T11:42:49;100387.22;;;14.33;100.00
36380;BME280;22411;53.016;18.632;2023-04-29T11:45:19;100382.38;;;14.28;100.00
36380;BME280;22411;53.016;18.632;2023-04-29T11:47:46;100384.34;;;14.36;100.00
36380;BME280;22411;53.016;18.632;2023-04-29T11:50:16;100379.75;;;14.49;100.00
36380;BME280;22411;53.016;18.632;2023-04-29T11:52:47;100377.88;;;14.61;100.00
36380;BME280;22411;53.016;18.632;2023-04-29T11:55:18;100381.97;;;14.63;100.00
36380;BME280;22411;53.016;18.632;2023-04-29T11:57:44;100382.28;;;14.80;100.00
36380;BME280;22411;53.016;18.632;2023-04-29T12:00:11;100377.66;;;14.93;100.00
36380;BME280;22411;53.016;18.632;2023-04-29T12:02:38;100374.34;;;15.10;100.00
36380;BME280;22411;53.016;18.632;2023-04-29T12:05:07;100368.72;;;15.15;100.00
36380;BME280;22411;53.016;18.632;2023-04-29T12:07:35;100370.78;;;15.21;100.00
36380;BME280;22411;53.016;18.632;2023-04-29T12:10:10;100368.03;;;15.32;100.00
36380;BME280;22411;53.016;18.632;2023-04-29T12:12:46;100369.78;;;15.61;100.00
36380;BME280;22411;53.016;18.632;2023-04-29T12:15:15;100363.53;;;15.91;100.00
36380;BME280;22411;53.016;18.632;2023-04-29T12:17:44;100352.41;;;15.89;100.00
36380;BME280;22411;53.016;18.632;2023-04-29T12:20:14;100355.47;;;15.84;99.30
36380;BME280;22411;53.016;18.632;2023-04-29T12:22:49;100356.03;;;16.15;98.19
36380;BME280;22411;53.016;18.632;2023-04-29T12:25:25;100356.81;;;16.53;94.82
36380;BME280;22411;53.016;18.632;2023-04-29T12:28:00;100357.34;;;17.90;84.18
36380;BME280;22411;53.016;18.632;2023-04-29T12:30:38;100347.53;;;18.85;68.49
36380;BME280;22411;53.016;18.632;2023-04-29T12:33:15;100349.84;;;19.28;70.05
36380;BME280;22411;53.016;18.632;2023-04-29T12:35:41;100341.06;;;19.85;64.16
36380;BME280;22411;53.016;18.632;2023-04-29T12:38:10;100343.75;;;20.16;59.92
36380;BME280;22411;53.016;18.632;2023-04-29T12:40:45;100343.19;;;20.37;60.04
36380;BME280;22411;53.016;18.632;2023-04-29T12:43:12;100338.81;;;21.06;56.18
36380;BME280;22411;53.016;18.632;2023-04-29T12:45:47;100334.69;;;21.27;54.22
36380;BME280;22411;53.016;18.632;2023-04-29T12:48:18;100336.72;;;20.40;55.95
36380;BME280;22411;53.016;18.632;2023-04-29T12:50:48;100325.69;;;18.84;65.43
36380;BME280;22411;53.016;18.632;2023-04-29T12:53:16;100330.94;;;18.76;69.30
36380;BME280;22411;53.016;18.632;2023-04-29T12:55:50;100327.16;;;19.44;65.47
36380;BME280;22411;53.016;18.632;2023-04-29T12:58:31;100320.91;;;20.08;60.67
36380;BME280;22411;53.016;18.632;2023-04-29T13:01:01;100314.63;;;21.03;58.37
36380;BME280;22411;53.016;18.632;2023-04-29T13:03:30;100318.63;;;20.45;58.15
36380;BME280;22411;53.016;18.632;2023-04-29T13:06:11;100325.88;;;19.07;65.39
36380;BME280;22411;53.016;18.632;2023-04-29T13:08:37;100320.22;;;18.11;74.68